This is the latest recevied weather packets stored in our database for station/object DG9BJA-13. If no packets are shown the sender has not sent any weather packets the latest 10 day(s).
| Time | Temp. | Humidity | Pressure | Rain* | Wind** | Luminosity | Snow |
|---|---|---|---|---|---|---|---|
| 1777823175 | 20.56° C | 57% | 1009.5 hPa | 0 mm | - | 121 W/m² | - |
| 1777822575 | 20.56° C | 54% | 1009.3 hPa | 0 mm | - | 153 W/m² | - |
| 1777821977 | 21.11° C | 52% | 1009.3 hPa | 0 mm | - | 165 W/m² | - |
| 1777821377 | 21.67° C | 51% | 1009.3 hPa | 0 mm | - | 188 W/m² | - |
| 1777820777 | 21.67° C | 52% | 1009.1 hPa | 0 mm | - | 200 W/m² | - |
| 1777820177 | 21.67° C | 49% | 1009.3 hPa | 0 mm | - | 207 W/m² | - |
| 1777819577 | 22.22° C | 51% | 1009.3 hPa | 0 mm | - | 207 W/m² | - |
| 1777818977 | 22.22° C | 50% | 1009.1 hPa | 0 mm | - | 278 W/m² | - |
| 1777818377 | 22.78° C | 50% | 1008.9 hPa | 0 mm | - | 322 W/m² | - |
| 1777817777 | 23.33° C | 47% | 1008.9 hPa | 0 mm | - | 181 W/m² | - |
| 1777817177 | 23.89° C | 45% | 1009.2 hPa | 0 mm | - | 573 W/m² | - |
| 1777816577 | 23.89° C | 45% | 1009.4 hPa | 0 mm | - | 619 W/m² | - |
| 1777815977 | 23.89° C | 44% | 1009.4 hPa | 0 mm | - | 621 W/m² | - |
| 1777815377 | 24.44° C | 44% | 1009.3 hPa | 0 mm | - | 666 W/m² | - |
| 1777814776 | 23.89° C | 45% | 1009.5 hPa | 0 mm | - | 708 W/m² | - |
| 1777814177 | 23.89° C | 48% | 1009.5 hPa | 0 mm | - | 679 W/m² | - |
| 1777813577 | 23.33° C | 48% | 1009.6 hPa | 0 mm | - | 387 W/m² | - |
| 1777812977 | 23.33° C | 47% | 1009.9 hPa | 0 mm | - | 345 W/m² | - |
| 1777812377 | 23.89° C | 46% | 1009.9 hPa | 0 mm | - | 397 W/m² | - |
| 1777811777 | 23.89° C | 46% | 1009.8 hPa | 0 mm | - | 473 W/m² | - |
| 1777811176 | 25° C | 46% | 1009.9 hPa | 0 mm | - | 1002 W/m² | - |
| 1777810577 | 24.44° C | 50% | 1009.9 hPa | 0 mm | - | 828 W/m² | - |
| 1777809976 | 23.89° C | 50% | 1010 hPa | 0 mm | - | 738 W/m² | - |
| 1777809376 | 23.89° C | 51% | 1010 hPa | 0 mm | - | 694 W/m² | - |
| 1777808777 | 23.33° C | 51% | 1010 hPa | 0 mm | - | 654 W/m² | - |
* Rain latest hour (hover to see other rain measurements)
** Current wind speed in m/s (hover to see current wind gust speed)